UAE92J LOWS-EGCC
Flight info
| Callsign | UAE92J |
|---|---|
| Flight time | N/A |
| Altitude | 12000 |
| Route | TRAUN2A/33 TRAUN L856 KONIN/N0438F380 DCT AMEXO DCT BABEG DCT ADENU L608 LIRSU DCT DENUT L610 LAM UN57 WELIN T420 ELVOS |
| Aircraft | A20N/M-SDE2E3FGHIRWXY/LB1 |
Departure
| Time | N/A |
|---|---|
| Airport | Salzburg Airport (LOWS) |
Arrival
| Time | 2026-05-04 19:39 |
|---|---|
| Airport | Manchester Airport (EGCC) |
| Time | Latitude | Longitude | Altitude | Speed | Heading |
|---|---|---|---|---|---|
| 2026-05-04 19:21 | 52.63418 | -1.23983 | 28679 ft | 447 kts | 327° |
| 2026-05-04 19:21 | 52.65783 | -1.26372 | 28106 ft | 443 kts | 327° |
| 2026-05-04 19:21 | 52.68386 | -1.29006 | 27397 ft | 440 kts | 327° |
| 2026-05-04 19:21 | 52.70091 | -1.30730 | 26658 ft | 441 kts | 318° |
| 2026-05-04 19:22 | 52.72695 | -1.33366 | 25491 ft | 446 kts | 326° |
| 2026-05-04 19:22 | 52.75346 | -1.36056 | 24227 ft | 454 kts | 325° |
| 2026-05-04 19:22 | 52.77988 | -1.38752 | 22562 ft | 459 kts | 325° |
| 2026-05-04 19:22 | 52.80016 | -1.40827 | 21498 ft | 457 kts | 326° |
| 2026-05-04 19:23 | 52.82711 | -1.43585 | 20342 ft | 450 kts | 326° |
| 2026-05-04 19:23 | 52.85336 | -1.46281 | 19218 ft | 443 kts | 327° |
| 2026-05-04 19:23 | 52.86470 | -1.47448 | 18747 ft | 440 kts | 327° |
| 2026-05-04 19:23 | 52.89040 | -1.50100 | 17519 ft | 432 kts | 323° |
| 2026-05-04 19:24 | 52.91589 | -1.52755 | 16286 ft | 424 kts | 327° |
| 2026-05-04 19:24 | 52.94057 | -1.55312 | 15182 ft | 417 kts | 327° |
| 2026-05-04 19:24 | 52.96204 | -1.57528 | 14240 ft | 411 kts | 327° |
| 2026-05-04 19:24 | 52.98601 | -1.60011 | 13101 ft | 404 kts | 327° |
| 2026-05-04 19:25 | 53.00923 | -1.62396 | 11982 ft | 397 kts | 327° |
| 2026-05-04 19:25 | 53.03266 | -1.64785 | 10823 ft | 390 kts | 324° |
| 2026-05-04 19:25 | 53.05292 | -1.67230 | 9757 ft | 382 kts | 324° |
| 2026-05-04 19:25 | 53.07142 | -1.70255 | 8799 ft | 369 kts | 309° |
| 2026-05-04 19:26 | 53.08717 | -1.73414 | 8362 ft | 345 kts | 309° |
| 2026-05-04 19:26 | 53.10167 | -1.76144 | 8168 ft | 318 kts | 309° |
| 2026-05-04 19:26 | 53.11256 | -1.78252 | 8060 ft | 294 kts | 310° |
| 2026-05-04 19:26 | 53.12475 | -1.80654 | 8053 ft | 267 kts | 311° |
| 2026-05-04 19:27 | 53.13616 | -1.82923 | 8058 ft | 276 kts | 310° |
| 2026-05-04 19:27 | 53.14831 | -1.85312 | 8096 ft | 278 kts | 309° |
| 2026-05-04 19:27 | 53.16050 | -1.87701 | 8075 ft | 270 kts | 307° |
| 2026-05-04 19:27 | 53.17283 | -1.90155 | 8074 ft | 274 kts | 311° |
| 2026-05-04 19:28 | 53.18534 | -1.92593 | 8066 ft | 273 kts | 310° |
| 2026-05-04 19:28 | 53.19749 | -1.94944 | 8054 ft | 255 kts | 310° |
| 2026-05-04 19:28 | 53.20846 | -1.97069 | 8046 ft | 233 kts | 310° |
| 2026-05-04 19:28 | 53.21914 | -1.99136 | 8051 ft | 237 kts | 310° |
| 2026-05-04 19:29 | 53.22961 | -2.01173 | 8059 ft | 234 kts | 310° |
| 2026-05-04 19:29 | 53.24020 | -2.03242 | 8055 ft | 235 kts | 310° |
| 2026-05-04 19:29 | 53.25079 | -2.05320 | 8049 ft | 242 kts | 310° |
| 2026-05-04 19:29 | 53.26183 | -2.07477 | 8034 ft | 242 kts | 310° |
| 2026-05-04 19:30 | 53.27459 | -2.09301 | 8057 ft | 243 kts | 333° |
| 2026-05-04 19:30 | 53.29062 | -2.10124 | 8049 ft | 242 kts | 356° |
| 2026-05-04 19:30 | 53.30753 | -2.09872 | 8025 ft | 245 kts | 6° |
| 2026-05-04 19:30 | 53.32419 | -2.09208 | 7856 ft | 244 kts | 18° |
| 2026-05-04 19:31 | 53.33844 | -2.08261 | 7607 ft | 244 kts | 22° |
| 2026-05-04 19:31 | 53.35429 | -2.07093 | 7257 ft | 245 kts | 22° |
| 2026-05-04 19:31 | 53.36992 | -2.05947 | 6766 ft | 252 kts | 22° |
| 2026-05-04 19:31 | 53.38625 | -2.04753 | 6226 ft | 259 kts | 22° |
| 2026-05-04 19:32 | 53.40303 | -2.03529 | 5639 ft | 267 kts | 22° |
| 2026-05-04 19:32 | 53.42037 | -2.02271 | 4996 ft | 275 kts | 22° |
| 2026-05-04 19:32 | 53.43767 | -2.00907 | 4316 ft | 285 kts | 25° |
| 2026-05-04 19:32 | 53.45630 | -1.99523 | 3743 ft | 286 kts | 14° |
| 2026-05-04 19:33 | 53.47571 | -1.99367 | 3556 ft | 271 kts | 347° |
| 2026-05-04 19:33 | 53.49254 | -2.00470 | 3432 ft | 256 kts | 321° |
| 2026-05-04 19:33 | 53.50226 | -2.02831 | 3322 ft | 242 kts | 284° |
| 2026-05-04 19:33 | 53.50124 | -2.05568 | 3201 ft | 229 kts | 245° |
| 2026-05-04 19:34 | 53.49079 | -2.07420 | 3107 ft | 219 kts | 211° |
| 2026-05-04 19:34 | 53.47800 | -2.08531 | 3035 ft | 199 kts | 209° |
| 2026-05-04 19:34 | 53.46636 | -2.09570 | 2981 ft | 178 kts | 211° |
| 2026-05-04 19:34 | 53.45953 | -2.10204 | 2882 ft | 164 kts | 212° |
| 2026-05-04 19:35 | 53.45011 | -2.11111 | 2715 ft | 150 kts | 213° |
| 2026-05-04 19:35 | 53.44157 | -2.11969 | 2553 ft | 142 kts | 214° |
| 2026-05-04 19:35 | 53.43305 | -2.12869 | 2384 ft | 145 kts | 216° |
| 2026-05-04 19:35 | 53.42459 | -2.13798 | 2191 ft | 143 kts | 217° |
| 2026-05-04 19:36 | 53.41634 | -2.14776 | 2001 ft | 143 kts | 222° |
| 2026-05-04 19:36 | 53.40910 | -2.15921 | 1807 ft | 141 kts | 231° |
| 2026-05-04 19:36 | 53.40281 | -2.17149 | 1629 ft | 141 kts | 234° |
| 2026-05-04 19:36 | 53.39673 | -2.18415 | 1445 ft | 140 kts | 235° |
| 2026-05-04 19:37 | 53.39067 | -2.19686 | 1232 ft | 137 kts | 234° |
| 2026-05-04 19:37 | 53.38479 | -2.20920 | 1050 ft | 140 kts | 235° |
| 2026-05-04 19:37 | 53.37865 | -2.22211 | 846 ft | 137 kts | 234° |
| 2026-05-04 19:37 | 53.37268 | -2.23465 | 661 ft | 135 kts | 234° |
| 2026-05-04 19:38 | 53.36697 | -2.24665 | 467 ft | 134 kts | 237° |
| 2026-05-04 19:38 | 53.36132 | -2.25896 | 321 ft | 130 kts | 238° |
| 2026-05-04 19:38 | 53.35626 | -2.27012 | 245 ft | 97 kts | 230° |
| 2026-05-04 19:38 | 53.35312 | -2.27691 | 238 ft | 65 kts | 238° |
| 2026-05-04 19:39 | 53.35247 | -2.27992 | 236 ft | 17 kts | 261° |
| 2026-05-04 19:39 | 53.35235 | -2.28164 | 231 ft | 0 kts | 282° |
| 2026-05-04 19:41 | 53.35240 | -2.28181 | 233 ft | 4 kts | 292° |
| 2026-05-04 19:41 | 53.35285 | -2.28189 | 232 ft | 13 kts | 12° |
| 2026-05-04 19:42 | 53.35388 | -2.28162 | 233 ft | 16 kts | 7° |
| 2026-05-04 19:42 | 53.35501 | -2.28114 | 240 ft | 17 kts | 38° |
| 2026-05-04 19:42 | 53.35587 | -2.27976 | 237 ft | 18 kts | 50° |
| 2026-05-04 19:42 | 53.35669 | -2.27813 | 239 ft | 19 kts | 52° |
| 2026-05-04 19:43 | 53.35691 | -2.27764 | 239 ft | 0 kts | 52° |
| 2026-05-04 19:44 | 53.35699 | -2.27746 | 239 ft | 6 kts | 52° |
| 2026-05-04 19:45 | 53.35733 | -2.27673 | 240 ft | 10 kts | 52° |
| 2026-05-04 19:45 | 53.35777 | -2.27570 | 241 ft | 12 kts | 54° |
| 2026-05-04 19:45 | 53.35813 | -2.27492 | 242 ft | 0 kts | 50° |